sensor_id;sensor_type;location;lat;lon;timestamp;temperature;humidity
47114;DHT22;32867;51.556;6.832;2024-03-29T00:01:11;10.50;1.00
47114;DHT22;32867;51.556;6.832;2024-03-29T00:06:12;10.40;1.00
47114;DHT22;32867;51.556;6.832;2024-03-29T00:11:13;10.40;1.00
47114;DHT22;32867;51.556;6.832;2024-03-29T00:16:13;10.30;1.00
47114;DHT22;32867;51.556;6.832;2024-03-29T00:21:14;10.40;1.00
47114;DHT22;32867;51.556;6.832;2024-03-29T00:26:14;10.40;1.00
47114;DHT22;32867;51.556;6.832;2024-03-29T00:31:15;10.50;1.00
47114;DHT22;32867;51.556;6.832;2024-03-29T00:36:16;10.40;1.00
47114;DHT22;32867;51.556;6.832;2024-03-29T00:41:16;10.50;1.00
47114;DHT22;32867;51.556;6.832;2024-03-29T00:46:18;10.40;1.00
47114;DHT22;32867;51.556;6.832;2024-03-29T00:51:18;10.60;1.00
47114;DHT22;32867;51.556;6.832;2024-03-29T00:56:19;10.60;1.00
47114;DHT22;32867;51.556;6.832;2024-03-29T01:01:20;10.50;1.00
47114;DHT22;32867;51.556;6.832;2024-03-29T01:06:20;10.40;1.00
47114;DHT22;32867;51.556;6.832;2024-03-29T01:11:21;10.50;1.00
47114;DHT22;32867;51.556;6.832;2024-03-29T01:16:22;10.40;1.00
47114;DHT22;32867;51.556;6.832;2024-03-29T01:21:22;10.40;1.00
47114;DHT22;32867;51.556;6.832;2024-03-29T01:26:23;10.30;1.00
47114;DHT22;32867;51.556;6.832;2024-03-29T01:31:24;10.20;1.00
47114;DHT22;32867;51.556;6.832;2024-03-29T01:36:24;10.40;1.00
47114;DHT22;32867;51.556;6.832;2024-03-29T01:41:25;10.40;1.00
47114;DHT22;32867;51.556;6.832;2024-03-29T01:46:27;10.60;1.00
47114;DHT22;32867;51.556;6.832;2024-03-29T01:51:28;10.40;1.00
47114;DHT22;32867;51.556;6.832;2024-03-29T01:56:29;10.50;1.00
47114;DHT22;32867;51.556;6.832;2024-03-29T02:01:30;10.60;1.00
47114;DHT22;32867;51.556;6.832;2024-03-29T02:06:31;10.80;1.00
47114;DHT22;32867;51.556;6.832;2024-03-29T02:11:34;10.80;1.00
47114;DHT22;32867;51.556;6.832;2024-03-29T02:16:34;10.70;1.00
47114;DHT22;32867;51.556;6.832;2024-03-29T02:21:37;10.70;1.00
47114;DHT22;32867;51.556;6.832;2024-03-29T02:26:40;10.80;1.00
47114;DHT22;32867;51.556;6.832;2024-03-29T02:31:42;10.90;1.00
47114;DHT22;32867;51.556;6.832;2024-03-29T02:36:43;10.90;1.00
47114;DHT22;32867;51.556;6.832;2024-03-29T02:41:44;10.90;1.00
47114;DHT22;32867;51.556;6.832;2024-03-29T02:46:44;11.00;1.00
47114;DHT22;32867;51.556;6.832;2024-03-29T02:51:45;10.90;1.00
47114;DHT22;32867;51.556;6.832;2024-03-29T02:56:46;11.00;1.00
47114;DHT22;32867;51.556;6.832;2024-03-29T03:01:46;11.00;1.00
47114;DHT22;32867;51.556;6.832;2024-03-29T03:06:47;11.00;1.00
47114;DHT22;32867;51.556;6.832;2024-03-29T03:11:47;11.10;1.00
47114;DHT22;32867;51.556;6.832;2024-03-29T03:16:48;11.00;1.00
47114;DHT22;32867;51.556;6.832;2024-03-29T03:21:50;10.90;1.00
47114;DHT22;32867;51.556;6.832;2024-03-29T03:26:51;11.00;1.00
47114;DHT22;32867;51.556;6.832;2024-03-29T03:31:51;10.90;1.00
47114;DHT22;32867;51.556;6.832;2024-03-29T03:36:52;10.70;1.00
47114;DHT22;32867;51.556;6.832;2024-03-29T03:41:53;10.80;1.00
47114;DHT22;32867;51.556;6.832;2024-03-29T03:46:53;10.70;1.00
47114;DHT22;32867;51.556;6.832;2024-03-29T03:51:54;10.70;1.00
47114;DHT22;32867;51.556;6.832;2024-03-29T03:56:55;10.80;1.00
47114;DHT22;32867;51.556;6.832;2024-03-29T04:01:55;10.80;1.00
47114;DHT22;32867;51.556;6.832;2024-03-29T04:06:56;10.90;1.00
47114;DHT22;32867;51.556;6.832;2024-03-29T04:11:56;10.90;1.00
47114;DHT22;32867;51.556;6.832;2024-03-29T04:16:57;10.90;1.00
47114;DHT22;32867;51.556;6.832;2024-03-29T04:21:58;10.70;1.00
47114;DHT22;32867;51.556;6.832;2024-03-29T04:26:58;10.60;1.00
47114;DHT22;32867;51.556;6.832;2024-03-29T04:31:59;10.50;1.00
47114;DHT22;32867;51.556;6.832;2024-03-29T04:37:00;10.30;1.00
47114;DHT22;32867;51.556;6.832;2024-03-29T04:42:01;10.10;1.00
47114;DHT22;32867;51.556;6.832;2024-03-29T04:47:01;9.90;1.00
47114;DHT22;32867;51.556;6.832;2024-03-29T04:52:04;9.90;1.00
47114;DHT22;32867;51.556;6.832;2024-03-29T04:57:04;9.90;1.00
47114;DHT22;32867;51.556;6.832;2024-03-29T05:02:09;9.80;1.00
47114;DHT22;32867;51.556;6.832;2024-03-29T05:07:09;9.80;1.00
47114;DHT22;32867;51.556;6.832;2024-03-29T05:12:10;9.70;1.00
47114;DHT22;32867;51.556;6.832;2024-03-29T05:17:10;9.50;1.00
47114;DHT22;32867;51.556;6.832;2024-03-29T05:22:11;9.50;1.00
47114;DHT22;32867;51.556;6.832;2024-03-29T05:27:12;9.40;1.00
47114;DHT22;32867;51.556;6.832;2024-03-29T05:32:13;9.30;1.00
47114;DHT22;32867;51.556;6.832;2024-03-29T05:37:13;9.30;1.00
47114;DHT22;32867;51.556;6.832;2024-03-29T05:42:17;9.30;1.00
47114;DHT22;32867;51.556;6.832;2024-03-29T05:47:17;9.30;3.90
47114;DHT22;32867;51.556;6.832;2024-03-29T05:52:18;9.30;1.00
47114;DHT22;32867;51.556;6.832;2024-03-29T05:57:18;9.40;1.00
47114;DHT22;32867;51.556;6.832;2024-03-29T06:02:19;9.50;1.00
47114;DHT22;32867;51.556;6.832;2024-03-29T06:07:20;9.50;1.00
47114;DHT22;32867;51.556;6.832;2024-03-29T06:12:21;9.50;5.50
47114;DHT22;32867;51.556;6.832;2024-03-29T06:17:21;9.50;1.20
47114;DHT22;32867;51.556;6.832;2024-03-29T06:22:25;9.50;2.00
47114;DHT22;32867;51.556;6.832;2024-03-29T06:27:33;9.50;8.10
47114;DHT22;32867;51.556;6.832;2024-03-29T06:32:33;9.50;28.30
47114;DHT22;32867;51.556;6.832;2024-03-29T06:37:34;9.40;28.10
47114;DHT22;32867;51.556;6.832;2024-03-29T06:42:35;9.50;25.40
47114;DHT22;32867;51.556;6.832;2024-03-29T06:47:35;9.50;14.90
47114;DHT22;32867;51.556;6.832;2024-03-29T06:52:36;9.60;27.70
47114;DHT22;32867;51.556;6.832;2024-03-29T06:57:37;9.50;37.80
47114;DHT22;32867;51.556;6.832;2024-03-29T07:02:37;9.60;1.00
47114;DHT22;32867;51.556;6.832;2024-03-29T07:07:38;9.50;1.00
47114;DHT22;32867;51.556;6.832;2024-03-29T07:12:40;9.50;1.00
47114;DHT22;32867;51.556;6.832;2024-03-29T07:17:41;9.60;1.00
47114;DHT22;32867;51.556;6.832;2024-03-29T07:22:43;9.70;1.00
47114;DHT22;32867;51.556;6.832;2024-03-29T07:27:45;9.70;1.00
47114;DHT22;32867;51.556;6.832;2024-03-29T07:32:47;9.70;1.00
47114;DHT22;32867;51.556;6.832;2024-03-29T07:37:47;9.60;1.00
47114;DHT22;32867;51.556;6.832;2024-03-29T07:42:50;9.90;1.00
47114;DHT22;32867;51.556;6.832;2024-03-29T07:47:50;9.90;1.00
47114;DHT22;32867;51.556;6.832;2024-03-29T07:52:53;10.00;1.00
47114;DHT22;32867;51.556;6.832;2024-03-29T07:57:53;10.00;1.00
47114;DHT22;32867;51.556;6.832;2024-03-29T08:02:54;9.90;1.00
47114;DHT22;32867;51.556;6.832;2024-03-29T08:07:55;10.00;1.00
47114;DHT22;32867;51.556;6.832;2024-03-29T08:12:55;9.70;1.00
47114;DHT22;32867;51.556;6.832;2024-03-29T08:17:56;9.90;1.00
47114;DHT22;32867;51.556;6.832;2024-03-29T08:22:59;10.10;15.90
47114;DHT22;32867;51.556;6.832;2024-03-29T08:28:00;10.40;1.10
47114;DHT22;32867;51.556;6.832;2024-03-29T08:33:03;10.70;1.00
47114;DHT22;32867;51.556;6.832;2024-03-29T08:38:04;11.00;1.00
47114;DHT22;32867;51.556;6.832;2024-03-29T08:43:05;11.30;1.00
47114;DHT22;32867;51.556;6.832;2024-03-29T08:48:09;11.30;1.00
47114;DHT22;32867;51.556;6.832;2024-03-29T08:53:10;11.40;1.00
47114;DHT22;32867;51.556;6.832;2024-03-29T08:58:10;11.20;18.40
47114;DHT22;32867;51.556;6.832;2024-03-29T09:03:11;11.20;71.90
47114;DHT22;32867;51.556;6.832;2024-03-29T09:08:12;10.80;99.90
47114;DHT22;32867;51.556;6.832;2024-03-29T09:13:12;11.00;99.90
47114;DHT22;32867;51.556;6.832;2024-03-29T09:18:13;11.00;99.90
47114;DHT22;32867;51.556;6.832;2024-03-29T09:23:19;11.00;99.90
47114;DHT22;32867;51.556;6.832;2024-03-29T09:28:24;11.00;99.90
47114;DHT22;32867;51.556;6.832;2024-03-29T09:33:25;11.00;99.90
47114;DHT22;32867;51.556;6.832;2024-03-29T09:38:26;11.00;99.90
47114;DHT22;32867;51.556;6.832;2024-03-29T09:43:27;10.90;99.90
47114;DHT22;32867;51.556;6.832;2024-03-29T09:48:28;11.00;99.90
47114;DHT22;32867;51.556;6.832;2024-03-29T09:53:37;11.10;99.90
47114;DHT22;32867;51.556;6.832;2024-03-29T09:58:38;11.00;99.90
47114;DHT22;32867;51.556;6.832;2024-03-29T10:03:41;11.00;99.90
47114;DHT22;32867;51.556;6.832;2024-03-29T10:08:42;11.00;99.90
47114;DHT22;32867;51.556;6.832;2024-03-29T10:13:43;11.30;99.90
47114;DHT22;32867;51.556;6.832;2024-03-29T10:18:47;11.20;99.90
47114;DHT22;32867;51.556;6.832;2024-03-29T10:23:48;11.30;99.90
47114;DHT22;32867;51.556;6.832;2024-03-29T10:28:48;11.50;99.90
47114;DHT22;32867;51.556;6.832;2024-03-29T10:33:49;11.60;99.90
47114;DHT22;32867;51.556;6.832;2024-03-29T10:38:52;11.80;99.90
47114;DHT22;32867;51.556;6.832;2024-03-29T10:43:54;12.00;99.90
47114;DHT22;32867;51.556;6.832;2024-03-29T10:48:57;12.30;99.90
47114;DHT22;32867;51.556;6.832;2024-03-29T10:53:59;12.40;78.40
47114;DHT22;32867;51.556;6.832;2024-03-29T11:04:34;12.50;26.70
47114;DHT22;32867;51.556;6.832;2024-03-29T11:09:38;12.70;10.80
47114;DHT22;32867;51.556;6.832;2024-03-29T11:14:45;12.90;1.00
47114;DHT22;32867;51.556;6.832;2024-03-29T11:19:47;13.00;1.00
47114;DHT22;32867;51.556;6.832;2024-03-29T11:24:50;13.10;1.00
47114;DHT22;32867;51.556;6.832;2024-03-29T11:29:52;13.30;1.00
47114;DHT22;32867;51.556;6.832;2024-03-29T11:34:54;13.30;1.00
47114;DHT22;32867;51.556;6.832;2024-03-29T11:39:55;13.10;1.00
47114;DHT22;32867;51.556;6.832;2024-03-29T11:44:56;13.30;1.00
47114;DHT22;32867;51.556;6.832;2024-03-29T11:49:57;13.80;1.00
47114;DHT22;32867;51.556;6.832;2024-03-29T11:54:59;14.50;1.00
47114;DHT22;32867;51.556;6.832;2024-03-29T11:59:59;14.40;1.00
47114;DHT22;32867;51.556;6.832;2024-03-29T12:05:00;14.00;1.00
47114;DHT22;32867;51.556;6.832;2024-03-29T12:10:01;14.10;1.00
47114;DHT22;32867;51.556;6.832;2024-03-29T12:15:01;14.40;1.00
47114;DHT22;32867;51.556;6.832;2024-03-29T12:20:02;14.50;1.00
47114;DHT22;32867;51.556;6.832;2024-03-29T12:25:05;14.50;1.00
47114;DHT22;32867;51.556;6.832;2024-03-29T12:30:06;14.20;1.00
47114;DHT22;32867;51.556;6.832;2024-03-29T12:35:12;14.30;1.00
47114;DHT22;32867;51.556;6.832;2024-03-29T12:40:13;14.50;1.00
47114;DHT22;32867;51.556;6.832;2024-03-29T12:45:19;14.80;1.00
47114;DHT22;32867;51.556;6.832;2024-03-29T12:50:32;14.60;1.00
47114;DHT22;32867;51.556;6.832;2024-03-29T12:55:33;14.90;1.00
47114;DHT22;32867;51.556;6.832;2024-03-29T13:00:40;15.20;1.00
47114;DHT22;32867;51.556;6.832;2024-03-29T13:05:40;15.20;1.00
47114;DHT22;32867;51.556;6.832;2024-03-29T13:10:42;15.10;1.00
47114;DHT22;32867;51.556;6.832;2024-03-29T13:15:43;15.30;1.00
47114;DHT22;32867;51.556;6.832;2024-03-29T13:20:47;15.90;1.00
47114;DHT22;32867;51.556;6.832;2024-03-29T13:25:48;16.20;1.00
47114;DHT22;32867;51.556;6.832;2024-03-29T13:30:49;16.20;1.00
47114;DHT22;32867;51.556;6.832;2024-03-29T13:35:53;16.00;1.00
47114;DHT22;32867;51.556;6.832;2024-03-29T13:40:54;16.00;1.00
47114;DHT22;32867;51.556;6.832;2024-03-29T13:45:56;16.00;1.00
47114;DHT22;32867;51.556;6.832;2024-03-29T13:50:59;15.90;1.00
47114;DHT22;32867;51.556;6.832;2024-03-29T13:56:00;16.10;1.00
47114;DHT22;32867;51.556;6.832;2024-03-29T14:01:01;16.50;1.00
47114;DHT22;32867;51.556;6.832;2024-03-29T14:06:02;16.10;1.00
47114;DHT22;32867;51.556;6.832;2024-03-29T14:11:05;16.20;1.00
47114;DHT22;32867;51.556;6.832;2024-03-29T14:16:05;16.20;1.00
47114;DHT22;32867;51.556;6.832;2024-03-29T14:21:06;15.70;1.00
47114;DHT22;32867;51.556;6.832;2024-03-29T14:26:07;15.60;1.00
47114;DHT22;32867;51.556;6.832;2024-03-29T14:31:07;15.80;1.00
47114;DHT22;32867;51.556;6.832;2024-03-29T14:36:08;16.00;1.00
47114;DHT22;32867;51.556;6.832;2024-03-29T14:41:09;16.20;1.00
47114;DHT22;32867;51.556;6.832;2024-03-29T14:46:10;16.40;1.00
47114;DHT22;32867;51.556;6.832;2024-03-29T14:51:10;16.50;1.00
47114;DHT22;32867;51.556;6.832;2024-03-29T14:56:11;16.40;1.00
47114;DHT22;32867;51.556;6.832;2024-03-29T15:01:12;16.50;1.00
47114;DHT22;32867;51.556;6.832;2024-03-29T15:06:12;16.20;1.00
47114;DHT22;32867;51.556;6.832;2024-03-29T15:11:13;16.30;1.00
47114;DHT22;32867;51.556;6.832;2024-03-29T15:16:13;16.40;1.00
47114;DHT22;32867;51.556;6.832;2024-03-29T15:21:14;16.30;1.00
47114;DHT22;32867;51.556;6.832;2024-03-29T15:26:15;16.30;1.00
47114;DHT22;32867;51.556;6.832;2024-03-29T15:31:20;15.60;1.00
47114;DHT22;32867;51.556;6.832;2024-03-29T15:36:22;15.90;1.00
47114;DHT22;32867;51.556;6.832;2024-03-29T15:41:22;16.00;1.00
47114;DHT22;32867;51.556;6.832;2024-03-29T15:46:23;16.30;1.00
47114;DHT22;32867;51.556;6.832;2024-03-29T15:51:24;16.80;1.00
47114;DHT22;32867;51.556;6.832;2024-03-29T15:56:25;16.80;1.00
47114;DHT22;32867;51.556;6.832;2024-03-29T16:01:26;16.60;1.00
47114;DHT22;32867;51.556;6.832;2024-03-29T16:06:27;16.50;1.00
47114;DHT22;32867;51.556;6.832;2024-03-29T16:11:37;16.30;1.00
47114;DHT22;32867;51.556;6.832;2024-03-29T16:16:38;16.20;1.00
47114;DHT22;32867;51.556;6.832;2024-03-29T16:21:39;15.90;1.00
47114;DHT22;32867;51.556;6.832;2024-03-29T16:26:40;15.90;1.00
47114;DHT22;32867;51.556;6.832;2024-03-29T16:31:40;16.00;1.00
47114;DHT22;32867;51.556;6.832;2024-03-29T16:36:41;16.00;1.00
47114;DHT22;32867;51.556;6.832;2024-03-29T16:41:42;15.60;1.00
47114;DHT22;32867;51.556;6.832;2024-03-29T16:46:46;15.60;1.00
47114;DHT22;32867;51.556;6.832;2024-03-29T16:51:47;15.40;1.00
47114;DHT22;32867;51.556;6.832;2024-03-29T16:56:47;15.40;1.00
47114;DHT22;32867;51.556;6.832;2024-03-29T17:01:48;15.40;1.00
47114;DHT22;32867;51.556;6.832;2024-03-29T17:06:49;15.30;1.00
47114;DHT22;32867;51.556;6.832;2024-03-29T17:11:49;15.20;1.00
47114;DHT22;32867;51.556;6.832;2024-03-29T17:16:50;15.10;1.00
47114;DHT22;32867;51.556;6.832;2024-03-29T17:21:51;14.90;1.00
47114;DHT22;32867;51.556;6.832;2024-03-29T17:26:54;14.90;1.00
47114;DHT22;32867;51.556;6.832;2024-03-29T17:31:55;15.00;1.00
47114;DHT22;32867;51.556;6.832;2024-03-29T17:36:56;15.00;1.00
47114;DHT22;32867;51.556;6.832;2024-03-29T17:41:57;15.00;1.00
47114;DHT22;32867;51.556;6.832;2024-03-29T17:46:57;15.00;1.00
47114;DHT22;32867;51.556;6.832;2024-03-29T17:51:58;15.00;1.00
47114;DHT22;32867;51.556;6.832;2024-03-29T17:56:59;14.90;1.00
47114;DHT22;32867;51.556;6.832;2024-03-29T18:01:59;14.80;1.00
47114;DHT22;32867;51.556;6.832;2024-03-29T18:07:00;14.80;1.00
47114;DHT22;32867;51.556;6.832;2024-03-29T18:12:00;14.60;1.00
47114;DHT22;32867;51.556;6.832;2024-03-29T18:17:01;14.60;1.00
47114;DHT22;32867;51.556;6.832;2024-03-29T18:22:02;14.60;1.00
47114;DHT22;32867;51.556;6.832;2024-03-29T18:27:03;14.70;1.00
47114;DHT22;32867;51.556;6.832;2024-03-29T18:32:03;14.50;1.00
47114;DHT22;32867;51.556;6.832;2024-03-29T18:37:04;14.50;1.00
47114;DHT22;32867;51.556;6.832;2024-03-29T18:42:05;14.50;1.00
47114;DHT22;32867;51.556;6.832;2024-03-29T18:47:05;14.40;1.00
47114;DHT22;32867;51.556;6.832;2024-03-29T18:52:06;14.40;1.00
47114;DHT22;32867;51.556;6.832;2024-03-29T18:57:07;14.30;1.00
47114;DHT22;32867;51.556;6.832;2024-03-29T19:02:08;14.40;1.00
47114;DHT22;32867;51.556;6.832;2024-03-29T19:07:09;14.30;1.00
47114;DHT22;32867;51.556;6.832;2024-03-29T19:12:09;14.30;1.00
47114;DHT22;32867;51.556;6.832;2024-03-29T19:17:10;14.30;1.00
47114;DHT22;32867;51.556;6.832;2024-03-29T19:22:11;14.10;1.00
47114;DHT22;32867;51.556;6.832;2024-03-29T19:27:12;14.20;1.00
47114;DHT22;32867;51.556;6.832;2024-03-29T19:32:12;14.10;1.00
47114;DHT22;32867;51.556;6.832;2024-03-29T19:37:13;14.10;1.00
47114;DHT22;32867;51.556;6.832;2024-03-29T19:42:14;13.90;1.00
47114;DHT22;32867;51.556;6.832;2024-03-29T19:47:15;13.80;1.00
47114;DHT22;32867;51.556;6.832;2024-03-29T19:52:15;13.90;1.00
47114;DHT22;32867;51.556;6.832;2024-03-29T19:57:16;13.70;1.00
47114;DHT22;32867;51.556;6.832;2024-03-29T20:02:17;13.50;1.00
47114;DHT22;32867;51.556;6.832;2024-03-29T20:07:18;13.60;1.00
47114;DHT22;32867;51.556;6.832;2024-03-29T20:12:19;13.60;1.00
47114;DHT22;32867;51.556;6.832;2024-03-29T20:17:19;13.40;1.00
47114;DHT22;32867;51.556;6.832;2024-03-29T20:22:20;13.30;1.00
47114;DHT22;32867;51.556;6.832;2024-03-29T20:27:20;13.30;1.00
47114;DHT22;32867;51.556;6.832;2024-03-29T20:32:23;13.40;1.00
47114;DHT22;32867;51.556;6.832;2024-03-29T20:37:23;13.20;1.00
47114;DHT22;32867;51.556;6.832;2024-03-29T20:42:24;13.20;1.00
47114;DHT22;32867;51.556;6.832;2024-03-29T20:47:25;13.30;1.00
47114;DHT22;32867;51.556;6.832;2024-03-29T20:52:26;13.20;1.00
47114;DHT22;32867;51.556;6.832;2024-03-29T20:57:26;13.00;1.00
47114;DHT22;32867;51.556;6.832;2024-03-29T21:02:27;13.10;1.00
47114;DHT22;32867;51.556;6.832;2024-03-29T21:07:50;12.90;1.00
47114;DHT22;32867;51.556;6.832;2024-03-29T21:12:52;13.00;1.00
47114;DHT22;32867;51.556;6.832;2024-03-29T21:17:55;12.80;1.00
47114;DHT22;32867;51.556;6.832;2024-03-29T21:22:59;13.00;1.00
47114;DHT22;32867;51.556;6.832;2024-03-29T21:28:00;12.90;1.00
47114;DHT22;32867;51.556;6.832;2024-03-29T21:33:04;12.90;1.00
47114;DHT22;32867;51.556;6.832;2024-03-29T21:38:04;12.90;1.00
47114;DHT22;32867;51.556;6.832;2024-03-29T21:43:06;12.90;1.00
47114;DHT22;32867;51.556;6.832;2024-03-29T21:48:10;12.80;1.00
47114;DHT22;32867;51.556;6.832;2024-03-29T21:53:10;12.80;1.00
47114;DHT22;32867;51.556;6.832;2024-03-29T21:58:11;12.50;1.00
47114;DHT22;32867;51.556;6.832;2024-03-29T22:03:12;12.60;1.00
47114;DHT22;32867;51.556;6.832;2024-03-29T22:08:14;12.60;1.00
47114;DHT22;32867;51.556;6.832;2024-03-29T22:13:15;12.40;1.00
47114;DHT22;32867;51.556;6.832;2024-03-29T22:18:15;12.50;1.00
47114;DHT22;32867;51.556;6.832;2024-03-29T22:23:16;12.50;1.00
47114;DHT22;32867;51.556;6.832;2024-03-29T22:28:17;12.50;1.00
47114;DHT22;32867;51.556;6.832;2024-03-29T22:33:17;12.40;1.00
47114;DHT22;32867;51.556;6.832;2024-03-29T22:38:18;12.40;1.00
47114;DHT22;32867;51.556;6.832;2024-03-29T22:43:19;12.60;1.00
47114;DHT22;32867;51.556;6.832;2024-03-29T22:48:19;12.60;1.00
47114;DHT22;32867;51.556;6.832;2024-03-29T22:53:21;12.30;1.00
47114;DHT22;32867;51.556;6.832;2024-03-29T22:58:21;12.40;1.00
47114;DHT22;32867;51.556;6.832;2024-03-29T23:03:22;12.40;1.00
47114;DHT22;32867;51.556;6.832;2024-03-29T23:08:23;12.40;1.00
47114;DHT22;32867;51.556;6.832;2024-03-29T23:13:23;12.40;1.00
47114;DHT22;32867;51.556;6.832;2024-03-29T23:18:24;12.40;1.00
47114;DHT22;32867;51.556;6.832;2024-03-29T23:23:25;12.20;1.00
47114;DHT22;32867;51.556;6.832;2024-03-29T23:28:26;12.30;1.00
47114;DHT22;32867;51.556;6.832;2024-03-29T23:33:26;12.30;1.60
47114;DHT22;32867;51.556;6.832;2024-03-29T23:38:27;12.10;22.90
47114;DHT22;32867;51.556;6.832;2024-03-29T23:43:28;12.20;23.10
47114;DHT22;32867;51.556;6.832;2024-03-29T23:48:29;12.20;24.40
47114;DHT22;32867;51.556;6.832;2024-03-29T23:53:30;12.00;58.30
47114;DHT22;32867;51.556;6.832;2024-03-29T23:58:31;12.10;72.40
